createdAt,value
2023-05-21T00:02:11.427Z,16.33
2023-05-21T00:05:15.031Z,16.35
2023-05-21T00:08:17.005Z,16.35
2023-05-21T00:11:18.810Z,16.36
2023-05-21T00:14:20.565Z,16.35
2023-05-21T00:17:22.789Z,16.35
2023-05-21T00:20:24.682Z,16.34
2023-05-21T00:23:26.431Z,16.34
2023-05-21T00:26:28.178Z,16.33
2023-05-21T00:29:30.988Z,16.33
2023-05-21T00:32:32.718Z,16.33
2023-05-21T00:35:34.627Z,16.32
2023-05-21T00:38:37.481Z,16.31
2023-05-21T00:41:42.557Z,16.31
2023-05-21T00:44:45.712Z,16.31
2023-05-21T00:47:47.811Z,16.31
2023-05-21T00:50:49.985Z,16.30
2023-05-21T00:53:54.497Z,16.30
2023-05-21T00:56:56.574Z,16.30
2023-05-21T00:59:58.279Z,16.29
2023-05-21T01:03:00.617Z,16.30
2023-05-21T01:06:04.639Z,16.29
2023-05-21T01:09:06.635Z,16.30
2023-05-21T01:12:10.171Z,16.29
2023-05-21T01:15:12.576Z,16.29
2023-05-21T01:18:15.344Z,16.30
2023-05-21T01:21:19.621Z,16.30
2023-05-21T01:24:21.604Z,16.31
2023-05-21T01:27:23.332Z,16.31
2023-05-21T01:30:25.962Z,16.32
2023-05-21T01:33:36.745Z,16.33
2023-05-21T01:36:44.723Z,16.33
2023-05-21T01:39:55.855Z,16.34
2023-05-21T01:42:58.192Z,16.34
2023-05-21T01:46:01.633Z,16.34
2023-05-21T01:49:05.208Z,16.34
2023-05-21T01:52:07.057Z,16.35
2023-05-21T01:55:09.269Z,16.35
2023-05-21T01:58:10.967Z,16.34
2023-05-21T02:01:12.741Z,16.34
2023-05-21T02:04:14.516Z,16.33
2023-05-21T02:07:17.707Z,16.34
2023-05-21T02:10:19.628Z,16.34
2023-05-21T02:13:24.998Z,16.34
2023-05-21T02:16:27.934Z,16.35
2023-05-21T02:19:29.810Z,16.35
2023-05-21T02:22:31.592Z,16.34
2023-05-21T02:25:33.574Z,16.35
2023-05-21T02:28:35.719Z,16.35
2023-05-21T02:31:39.208Z,16.35
2023-05-21T02:34:44.565Z,16.35
2023-05-21T02:37:46.624Z,16.35
2023-05-21T02:40:53.057Z,16.35
2023-05-21T02:43:55.492Z,16.36
2023-05-21T02:46:57.376Z,16.37
2023-05-21T02:50:00.309Z,16.37
2023-05-21T02:53:02.109Z,16.38
2023-05-21T02:56:04.548Z,16.38
2023-05-21T02:59:06.421Z,16.39
2023-05-21T03:02:08.903Z,16.40
2023-05-21T03:05:10.835Z,16.40
2023-05-21T03:08:12.688Z,16.40
2023-05-21T03:11:14.674Z,16.39
2023-05-21T03:14:16.619Z,16.39
2023-05-21T03:17:18.451Z,16.40
2023-05-21T03:20:20.450Z,16.39
2023-05-21T03:23:22.224Z,16.39
2023-05-21T03:26:26.955Z,16.39
2023-05-21T03:29:29.024Z,16.38
2023-05-21T03:32:33.266Z,16.37
2023-05-21T03:35:35.697Z,16.35
2023-05-21T03:38:37.993Z,16.34
2023-05-21T03:41:40.340Z,16.32
2023-05-21T03:44:45.351Z,16.31
2023-05-21T03:47:58.817Z,16.30
2023-05-21T03:51:00.989Z,16.28
2023-05-21T03:54:02.793Z,16.26
2023-05-21T03:57:04.714Z,16.25
2023-05-21T04:00:08.432Z,16.23
2023-05-21T04:03:17.710Z,16.22
2023-05-21T04:06:20.351Z,16.21
2023-05-21T04:09:22.206Z,16.20
2023-05-21T04:12:23.961Z,16.18
2023-05-21T04:15:26.973Z,16.17
2023-05-21T04:18:28.800Z,16.18
2023-05-21T04:21:31.675Z,16.18
2023-05-21T04:24:33.442Z,16.19
2023-05-21T04:27:55.454Z,16.21
2023-05-21T04:30:57.387Z,16.23
2023-05-21T04:33:59.219Z,16.25
2023-05-21T04:37:01.757Z,16.30
2023-05-21T04:40:04.040Z,16.35
2023-05-21T04:43:05.839Z,16.40
2023-05-21T04:46:09.150Z,16.44
2023-05-21T04:49:10.980Z,16.49
2023-05-21T04:52:13.691Z,16.53
2023-05-21T04:55:18.454Z,16.57
2023-05-21T04:58:20.542Z,16.62
2023-05-21T05:01:23.065Z,16.66
2023-05-21T05:04:25.210Z,16.70
2023-05-21T05:07:26.879Z,16.74
2023-05-21T05:10:28.726Z,16.78
2023-05-21T05:13:30.758Z,16.83
2023-05-21T05:16:33.597Z,16.86
2023-05-21T05:19:35.951Z,16.94
2023-05-21T05:22:38.989Z,17.05
2023-05-21T05:25:40.814Z,17.15
2023-05-21T05:28:43.464Z,17.25
2023-05-21T05:31:45.356Z,17.34
2023-05-21T05:34:47.599Z,17.45
2023-05-21T05:37:50.067Z,17.55
2023-05-21T05:40:51.824Z,17.67
2023-05-21T05:43:53.737Z,17.78
2023-05-21T05:46:56.452Z,17.90
2023-05-21T05:49:58.160Z,18.04
2023-05-21T05:53:00.232Z,18.17
2023-05-21T05:56:01.967Z,18.28
2023-05-21T05:59:05.442Z,18.42
2023-05-21T06:02:09.783Z,18.53
2023-05-21T06:05:11.721Z,18.63
2023-05-21T06:08:13.533Z,18.74
2023-05-21T06:11:16.584Z,18.85
2023-05-21T06:14:18.314Z,18.94
2023-05-21T06:17:20.166Z,19.04
2023-05-21T06:20:22.595Z,19.12
2023-05-21T06:23:24.501Z,19.22
2023-05-21T06:26:26.390Z,19.32
2023-05-21T06:29:28.263Z,19.40
2023-05-21T06:32:30.143Z,19.45
2023-05-21T06:35:34.272Z,19.50
2023-05-21T06:38:36.162Z,19.56
2023-05-21T06:41:37.897Z,19.61
2023-05-21T06:44:55.677Z,19.70
2023-05-21T06:48:03.061Z,19.80
2023-05-21T06:51:04.931Z,19.90
2023-05-21T06:54:07.823Z,19.99
2023-05-21T06:57:10.061Z,20.11
2023-05-21T07:00:12.533Z,20.21
2023-05-21T07:03:15.301Z,20.33
2023-05-21T07:06:17.622Z,20.44
2023-05-21T07:09:19.201Z,20.55
2023-05-21T07:12:21.421Z,20.68
2023-05-21T07:15:23.371Z,20.79
2023-05-21T07:18:25.454Z,20.91
2023-05-21T07:21:27.183Z,21.05
2023-05-21T07:24:29.121Z,21.17
2023-05-21T07:27:31.211Z,21.28
2023-05-21T07:30:33.146Z,21.39
2023-05-21T07:33:36.072Z,21.55
2023-05-21T07:36:37.931Z,21.69
2023-05-21T07:39:39.995Z,21.84
2023-05-21T07:42:41.703Z,21.99
2023-05-21T07:45:43.624Z,22.10
2023-05-21T07:48:45.888Z,22.20
2023-05-21T07:51:48.068Z,22.33
2023-05-21T07:54:50.536Z,22.44
2023-05-21T07:57:52.657Z,22.57
2023-05-21T08:01:00.169Z,22.69
2023-05-21T08:04:05.467Z,22.82
2023-05-21T08:07:07.540Z,22.94
2023-05-21T08:10:09.513Z,23.04
2023-05-21T08:13:11.763Z,23.17
2023-05-21T08:16:13.875Z,23.27
2023-05-21T08:19:16.157Z,23.34
2023-05-21T08:22:17.933Z,23.41
2023-05-21T08:25:20.282Z,23.51
2023-05-21T08:28:22.967Z,23.59
2023-05-21T08:31:26.701Z,23.70
2023-05-21T08:34:29.529Z,23.80
2023-05-21T08:37:54.183Z,23.88
2023-05-21T08:41:21.605Z,23.98
2023-05-21T08:44:26.042Z,24.05
2023-05-21T08:47:33.750Z,24.12
2023-05-21T08:50:37.460Z,24.25
2023-05-21T08:53:45.176Z,24.36
2023-05-21T08:56:48.898Z,24.46
2023-05-21T08:59:51.435Z,24.56
2023-05-21T09:03:01.486Z,24.67
2023-05-21T09:06:03.773Z,24.74
2023-05-21T09:09:33.191Z,24.82
2023-05-21T09:12:35.779Z,24.90
2023-05-21T09:15:38.257Z,24.98
2023-05-21T09:18:41.376Z,25.03
2023-05-21T09:21:54.942Z,25.13
2023-05-21T09:24:59.022Z,25.23
2023-05-21T09:28:01.397Z,25.28
2023-05-21T09:31:06.262Z,25.34
2023-05-21T09:34:13.603Z,25.37
2023-05-21T09:37:27.017Z,25.42
2023-05-21T09:40:30.052Z,25.48
2023-05-21T09:43:32.409Z,25.53
2023-05-21T09:46:39.905Z,25.59
2023-05-21T09:49:43.617Z,25.64
2023-05-21T09:52:46.245Z,25.70
2023-05-21T09:55:57.028Z,25.78
2023-05-21T09:59:06.422Z,25.86
2023-05-21T10:02:21.714Z,25.95
2023-05-21T10:05:27.456Z,25.99
2023-05-21T10:08:35.659Z,26.08
2023-05-21T10:11:39.265Z,26.17
2023-05-21T10:14:44.268Z,26.22
2023-05-21T10:17:48.144Z,26.27
2023-05-21T10:20:50.827Z,26.29
2023-05-21T10:23:53.682Z,26.32
2023-05-21T10:26:55.430Z,26.37
2023-05-21T10:29:59.034Z,26.41
2023-05-21T10:33:01.365Z,26.45
2023-05-21T10:36:03.470Z,26.48
2023-05-21T10:39:07.159Z,26.51
2023-05-21T10:42:20.337Z,26.52
2023-05-21T10:45:45.666Z,26.56
2023-05-21T10:48:55.766Z,26.63
2023-05-21T10:52:24.393Z,26.67
2023-05-21T10:55:41.649Z,26.70
2023-05-21T10:59:17.828Z,26.73
2023-05-21T11:02:20.828Z,26.78
2023-05-21T11:05:50.204Z,26.82
2023-05-21T11:08:54.919Z,26.88
2023-05-21T11:11:58.439Z,26.94
2023-05-21T11:15:00.303Z,27.02
2023-05-21T11:18:01.990Z,27.09
2023-05-21T11:21:09.772Z,27.14
2023-05-21T11:24:18.706Z,27.23
2023-05-21T11:27:40.081Z,27.31
2023-05-21T11:30:42.289Z,27.38
2023-05-21T11:33:47.058Z,27.40
2023-05-21T11:36:49.327Z,27.42
2023-05-21T11:39:51.618Z,27.42
2023-05-21T11:42:55.185Z,27.44
2023-05-21T11:45:57.274Z,27.49
2023-05-21T11:49:00.152Z,27.52
2023-05-21T11:52:04.011Z,27.55
2023-05-21T11:55:06.732Z,27.58
2023-05-21T11:58:12.925Z,27.59
2023-05-21T12:01:27.129Z,27.58
2023-05-21T12:04:35.781Z,27.59
2023-05-21T12:07:38.135Z,27.58
2023-05-21T12:10:39.943Z,27.57
2023-05-21T12:13:41.902Z,27.59
2023-05-21T12:16:43.643Z,27.63
2023-05-21T12:19:46.808Z,27.68
2023-05-21T12:22:49.286Z,27.66
2023-05-21T12:25:52.928Z,27.67
2023-05-21T12:28:55.611Z,27.67
2023-05-21T12:32:05.884Z,27.65
2023-05-21T12:35:08.132Z,27.65
2023-05-21T12:38:09.774Z,27.65
2023-05-21T12:41:14.262Z,27.66
2023-05-21T12:44:16.093Z,27.66
2023-05-21T12:47:17.888Z,27.69
2023-05-21T12:50:21.099Z,27.69
2023-05-21T12:53:22.944Z,27.67
2023-05-21T12:56:25.436Z,27.65
2023-05-21T12:59:27.207Z,27.63
2023-05-21T13:02:32.509Z,27.59
2023-05-21T13:05:34.942Z,27.59
2023-05-21T13:08:37.844Z,27.58
2023-05-21T13:11:39.711Z,27.41
2023-05-21T13:14:41.403Z,27.18
2023-05-21T13:17:44.602Z,27.13
2023-05-21T13:20:47.275Z,27.08
2023-05-21T13:23:49.589Z,27.08
2023-05-21T13:26:51.497Z,27.10
2023-05-21T13:29:53.336Z,27.12
2023-05-21T13:32:55.318Z,27.14
2023-05-21T13:35:57.202Z,27.15
2023-05-21T13:38:58.894Z,27.17
2023-05-21T13:42:01.292Z,27.17
2023-05-21T13:45:03.875Z,27.15
2023-05-21T13:48:05.916Z,27.14
2023-05-21T13:51:07.756Z,27.13
2023-05-21T13:54:09.413Z,27.09
2023-05-21T13:57:11.121Z,27.00
2023-05-21T14:00:14.666Z,26.96
2023-05-21T14:03:16.378Z,26.97
2023-05-21T14:06:18.219Z,26.94
2023-05-21T14:09:20.214Z,26.90
2023-05-21T14:12:22.020Z,26.83
2023-05-21T14:15:23.720Z,26.78
2023-05-21T14:18:25.471Z,26.75
2023-05-21T14:21:27.192Z,26.70
2023-05-21T14:24:29.008Z,26.64
2023-05-21T14:27:30.695Z,26.58
2023-05-21T14:30:32.490Z,26.52
2023-05-21T14:33:36.107Z,26.47
2023-05-21T14:36:37.842Z,26.42
2023-05-21T14:39:40.758Z,26.38
2023-05-21T14:42:44.972Z,26.30
2023-05-21T14:45:46.984Z,26.23
2023-05-21T14:48:48.818Z,26.17
2023-05-21T14:51:50.820Z,26.12
2023-05-21T14:54:52.879Z,26.03
2023-05-21T14:57:55.312Z,25.92
2023-05-21T15:00:58.470Z,25.80
2023-05-21T15:04:02.168Z,25.70
2023-05-21T15:07:04.167Z,25.58
2023-05-21T15:10:06.618Z,25.46
2023-05-21T15:13:08.474Z,25.36
2023-05-21T15:16:10.254Z,25.24
2023-05-21T15:19:11.977Z,25.12
2023-05-21T15:22:13.712Z,24.99
2023-05-21T15:25:18.487Z,24.86
2023-05-21T15:28:20.289Z,24.74
2023-05-21T15:31:22.189Z,24.65
2023-05-21T15:34:23.871Z,24.56
2023-05-21T15:37:25.866Z,24.47
2023-05-21T15:40:27.557Z,24.40
2023-05-21T15:43:29.289Z,24.34
2023-05-21T15:46:31.009Z,24.29
2023-05-21T15:49:33.271Z,24.24
2023-05-21T15:52:36.557Z,24.20
2023-05-21T15:55:38.650Z,24.14
2023-05-21T15:58:40.713Z,24.09
2023-05-21T16:01:42.822Z,24.05
2023-05-21T16:04:46.195Z,24.01
2023-05-21T16:07:48.527Z,23.97
2023-05-21T16:10:50.273Z,23.94
2023-05-21T16:13:53.320Z,23.91
2023-05-21T16:16:57.913Z,23.87
2023-05-21T16:19:59.813Z,23.83
2023-05-21T16:23:03.048Z,23.78
2023-05-21T16:26:06.263Z,23.73
2023-05-21T16:29:07.995Z,23.69
2023-05-21T16:32:12.231Z,23.65
2023-05-21T16:35:14.236Z,23.61
2023-05-21T16:38:16.026Z,23.57
2023-05-21T16:41:20.205Z,23.53
2023-05-21T16:44:21.971Z,23.48
2023-05-21T16:47:23.674Z,23.43
2023-05-21T16:50:25.952Z,23.39
2023-05-21T16:53:27.832Z,23.35
2023-05-21T16:56:30.806Z,23.33
2023-05-21T16:59:34.804Z,23.29
2023-05-21T17:02:37.960Z,23.25
2023-05-21T17:05:39.949Z,23.20
2023-05-21T17:08:42.145Z,23.15
2023-05-21T17:11:44.223Z,23.11
2023-05-21T17:14:45.891Z,23.08
2023-05-21T17:17:47.901Z,23.05
2023-05-21T17:20:49.874Z,23.02
2023-05-21T17:23:53.061Z,22.99
2023-05-21T17:26:54.838Z,22.96
2023-05-21T17:29:57.220Z,22.93
2023-05-21T17:33:01.247Z,22.90
2023-05-21T17:36:03.181Z,22.85
2023-05-21T17:39:05.027Z,22.80
2023-05-21T17:42:06.886Z,22.76
2023-05-21T17:45:08.968Z,22.71
2023-05-21T17:48:11.350Z,22.67
2023-05-21T17:51:13.264Z,22.63
2023-05-21T17:54:15.303Z,22.59
2023-05-21T17:57:19.032Z,22.55
2023-05-21T18:00:20.843Z,22.51
2023-05-21T18:03:22.645Z,22.45
2023-05-21T18:06:24.399Z,22.39
2023-05-21T18:09:28.708Z,22.33
2023-05-21T18:12:30.504Z,22.26
2023-05-21T18:15:32.903Z,22.19
2023-05-21T18:18:34.650Z,22.12
2023-05-21T18:21:36.961Z,22.05
2023-05-21T18:24:39.301Z,21.98
2023-05-21T18:27:41.248Z,21.87
2023-05-21T18:30:43.321Z,21.80
2023-05-21T18:33:45.112Z,21.72
2023-05-21T18:36:47.747Z,21.65
2023-05-21T18:39:49.556Z,21.57
2023-05-21T18:42:51.469Z,21.50
2023-05-21T18:45:53.278Z,21.44
2023-05-21T18:48:58.109Z,21.37
2023-05-21T18:51:59.980Z,21.31
2023-05-21T18:55:02.096Z,21.25
2023-05-21T18:58:03.799Z,21.20
2023-05-21T19:01:05.918Z,21.14
2023-05-21T19:04:07.590Z,21.09
2023-05-21T19:07:09.321Z,21.04
2023-05-21T19:10:11.943Z,20.99
2023-05-21T19:13:14.234Z,20.96
2023-05-21T19:16:16.024Z,20.90
2023-05-21T19:19:17.946Z,20.86
2023-05-21T19:22:19.774Z,20.83
2023-05-21T19:25:21.590Z,20.79
2023-05-21T19:28:23.362Z,20.74
2023-05-21T19:31:25.628Z,20.71
2023-05-21T19:34:27.575Z,20.66
2023-05-21T19:37:29.399Z,20.63
2023-05-21T19:40:31.188Z,20.58
2023-05-21T19:43:32.909Z,20.55
2023-05-21T19:46:34.751Z,20.51
2023-05-21T19:49:36.669Z,20.46
2023-05-21T19:52:38.787Z,20.42
2023-05-21T19:55:40.523Z,20.37
2023-05-21T19:58:46.390Z,20.33
2023-05-21T20:01:48.291Z,20.29
2023-05-21T20:04:50.706Z,20.27
2023-05-21T20:07:52.377Z,20.25
2023-05-21T20:10:54.210Z,20.21
2023-05-21T20:13:56.679Z,20.18
2023-05-21T20:16:58.605Z,20.14
2023-05-21T20:20:00.861Z,20.12
2023-05-21T20:23:03.047Z,20.10
2023-05-21T20:26:04.858Z,20.08
2023-05-21T20:29:07.358Z,20.06
2023-05-21T20:32:09.437Z,20.03
2023-05-21T20:35:11.892Z,20.00
2023-05-21T20:38:15.168Z,19.97
2023-05-21T20:41:17.237Z,19.96
2023-05-21T20:44:20.667Z,19.94
2023-05-21T20:47:22.768Z,19.91
2023-05-21T20:50:25.396Z,19.88
2023-05-21T20:53:27.185Z,19.85
2023-05-21T20:56:40.931Z,19.82
2023-05-21T20:59:43.686Z,19.77
2023-05-21T21:02:45.574Z,19.74
2023-05-21T21:05:47.606Z,19.70
2023-05-21T21:08:49.497Z,19.67
2023-05-21T21:11:51.312Z,19.63
2023-05-21T21:14:53.515Z,19.62
2023-05-21T21:17:55.254Z,19.60
2023-05-21T21:20:57.072Z,19.57
2023-05-21T21:23:58.837Z,19.54
2023-05-21T21:27:00.836Z,19.51
2023-05-21T21:30:04.068Z,19.48
2023-05-21T21:33:07.304Z,19.43
2023-05-21T21:36:12.367Z,19.38
2023-05-21T21:39:14.051Z,19.34
2023-05-21T21:42:15.791Z,19.29
2023-05-21T21:45:17.732Z,19.25
2023-05-21T21:48:19.432Z,19.21
2023-05-21T21:51:23.130Z,19.18
2023-05-21T21:54:27.023Z,19.13
2023-05-21T21:57:29.398Z,19.12
2023-05-21T22:00:31.196Z,19.10
2023-05-21T22:03:36.224Z,19.07
2023-05-21T22:06:38.424Z,19.03
2023-05-21T22:09:40.071Z,19.00
2023-05-21T22:12:42.897Z,18.93
2023-05-21T22:15:45.203Z,18.87
2023-05-21T22:18:46.924Z,18.83
2023-05-21T22:21:49.522Z,18.78
2023-05-21T22:24:54.435Z,18.73
2023-05-21T22:27:56.242Z,18.68
2023-05-21T22:30:58.562Z,18.64
2023-05-21T22:34:00.361Z,18.59
2023-05-21T22:37:02.127Z,18.55
2023-05-21T22:40:06.302Z,18.51
2023-05-21T22:43:08.155Z,18.48
2023-05-21T22:46:10.196Z,18.45
2023-05-21T22:49:11.909Z,18.42
2023-05-21T22:52:13.941Z,18.38
2023-05-21T22:55:15.806Z,18.34
2023-05-21T22:58:17.945Z,18.32
2023-05-21T23:01:19.784Z,18.30
2023-05-21T23:04:40.140Z,18.26
2023-05-21T23:07:45.982Z,18.23
2023-05-21T23:10:47.866Z,18.18
2023-05-21T23:13:49.588Z,18.15
2023-05-21T23:16:53.275Z,18.09
2023-05-21T23:19:55.540Z,18.06
2023-05-21T23:22:57.335Z,18.01
2023-05-21T23:25:59.699Z,17.98
2023-05-21T23:29:01.736Z,17.94
2023-05-21T23:32:04.468Z,17.91
2023-05-21T23:35:08.655Z,17.88
2023-05-21T23:38:10.452Z,17.84
2023-05-21T23:41:12.762Z,17.80
2023-05-21T23:44:14.954Z,17.77
2023-05-21T23:47:16.565Z,17.73
2023-05-21T23:50:18.335Z,17.68
2023-05-21T23:53:20.193Z,17.65
2023-05-21T23:56:22.138Z,17.63
2023-05-21T23:59:23.888Z,17.61
